Hlavní strana
METAR-TAF:

METAR-TAF

Letiště :

Ouarzazate, Maroko

zeměpisná šířka: 30-56N, zeměpisná délka: 006-54W, výška: 1139 m

Aktuální stav počasí

Zpráva byla vytvořena před 33 minutami, v 05:00 UTC
vítr z různých směrů 1 kt
Teplota 7°C
Vlhkost vzduchu 33%
Tlak 1020 hPa
Viditelnost 10 km a více
Skoro jasno ve výšce 3000 ft

METAR: GMMZ 250500Z VRB01KT 9999 FEW030 07/M08 Q1020 NOSIG

Čas: 06:33 (05:33 UTC)

Předpověď počasí

Zpráva byla vytvořena před 33 minutami, v 05:00 UTC
Předpověď platná od 25 v 06 UTC do 26 v 12 UTC
vítr z různých směrů 2 kt
Viditelnost 10 km a více
Skoro jasno ve výšce 3000 ft

TAF: GMMZ 250500Z 2506/2612 VRB02KT 9999 FEW030

Stav a předpovědi počasí z více než 4 000 letišť (zprávy METAR a TAF).

Červené a žluté tečky na mapě představují dostupné meteorologické stanice.

Když kurzor umístíte na tečku, zobrazí se název stanice.

Pak kliknutím zobrazíte stav a předpověď počasí.

Chcete-li změnit mapu, kliknutím na zelené tlačítko se znaménkem +mapu přiblížíte, kliknutím na zelené tlačítko se znaménkem – mapu oddálíte a kliknutím na zelené šipky přejdete na sousední mapy.


METAR-TAF: